ARC Gloria — 5KMT — position and weather

sailwx.info

Track history (hours):
 
Tides and Currents Weather Stations Pressure Air Temp Water Temp Dewpoint Dewpoint Depression Visibility Wind Speed Wind Dir Waves Ship Positions

ARC Gloria (Colombia)

Three-masted barque. Training ship of the Colombian National Armada.

Ship's website: http://www.armada.mil.co/

Last reported at 2017-May-10 14:16 UTC. Time now 2017-May-28 08:29 UTC.
Position N 46°50' W 126°06'.
Warning: this ship's position is 17 days out of date.

Length 76 m; draft 4.6 m.

Type: Sailing vessel. MMSI: 730010001.

Date/timePositionNaut miles runAvg speedWind from/ knotsBaromVisibWave heightAir tempDewpointWater temp
2017-May-10 14:16N 46°50' W 126°06'2910.5
2017-May-10 11:31N 47°17' W 125°53'0 9.6
2017-May-10 11:31N 47°17' W 125°53'8210.3
2017-May-10 03:28N 48°31' W 124°58'510.9
2017-May-10 03:00N 48°31' W 124°50'510.6
2017-May-10 02:31N 48°30' W 124°42'510.9
2017-May-10 02:00N 48°28' W 124°34'610.8
2017-May-10 01:30N 48°26' W 124°27'510.4
2017-May-10 01:01N 48°24' W 124°20'5 9.6
2017-May-10 00:31N 48°22' W 124°13'5 9.2
2017-May-10 00:00N 48°20' W 124°07'4 9.0
2017-May-09 23:31N 48°19' W 124°00'6 9.1
2017-May-09 22:52N 48°17' W 123°52'3 9.4
2017-May-09 22:30N 48°17' W 123°47'5 9.3
2017-May-09 21:59N 48°16' W 123°40'5 9.7
2017-May-09 21:31N 48°15' W 123°33'4 7.7
2017-May-09 21:01N 48°18' W 123°28'5 9.4
2017-May-09 20:29N 48°22' W 123°25'3 7.0
2017-May-09 20:01N 48°23' W 123°20'4 7.7
2017-May-09 19:31N 48°24' W 123°14'5 9.4
2017-May-09 19:01N 48°29' W 123°13'612.0
2017-May-09 18:31N 48°35' W 123°14'612.1
2017-May-09 18:00N 48°41' W 123°16'510.2
2017-May-09 17:30N 48°45' W 123°19'611.7
2017-May-09 16:58N 48°52' W 123°21'4 6.9
2017-May-09 16:20N 48°56' W 123°19'410.7
2017-May-09 15:59N 48°59' W 123°21'611.9
2017-May-09 15:30N 49°05' W 123°23'611.5
2017-May-09 14:59N 49°11' W 123°22'9 9.3
2017-May-09 14:00N 49°17' W 123°13'2 3.3
2017-May-09 13:30N 49°17' W 123°11'0 0.0
2017-May-09 12:57N 49°17' W 123°11'0 0.0
2017-May-09 12:30N 49°17' W 123°11'0 0.0
2017-May-09 11:57N 49°17' W 123°11'0 0.0
2017-May-09 11:18N 49°17' W 123°11'0 0.0
2017-May-09 10:51N 49°17' W 123°11'0 0.0
2017-May-09 10:30N 49°17' W 123°11'0 0.0
2017-May-09 10:00N 49°17' W 123°11'0 0.0
2017-May-09 09:30N 49°17' W 123°11'0 0.0
2017-May-09 08:54N 49°17' W 123°11'0 0.1
2017-May-09 08:27N 49°17' W 123°11'0 0.0
2017-May-09 08:00N 49°17' W 123°11'0 0.0
2017-May-09 07:30N 49°17' W 123°11'0 0.1
2017-May-09 06:54N 49°17' W 123°11'0 0.1
2017-May-09 06:24N 49°17' W 123°11'0 0.0
2017-May-09 05:54N 49°17' W 123°11'0 0.1
2017-May-09 05:30N 49°17' W 123°11'0 0.0
2017-May-09 04:57N 49°17' W 123°11'0 0.0
2017-May-09 03:43N 49°17' W 123°11'0 0.1
2017-May-09 03:25N 49°17' W 123°11'0 0.0
2017-May-09 02:55N 49°17' W 123°11'0 0.5
2017-May-09 02:28N 49°17' W 123°11'1 2.8
2017-May-09 02:01N 49°19' W 123°10'3 5.3
2017-May-09 01:30N 49°18' W 123°06'1 1.1
2017-May-09 00:51N 49°18' W 123°05'  
2017-May-05 01:25N 49°18' W 123°05'0 1.2
2017-May-05 01:00N 49°18' W 123°05'3 5.3
2017-May-05 00:30N 49°19' W 123°09'2 3.6
2017-May-05 00:00N 49°17' W 123°10'0 0.9
2017-May-04 23:29N 49°17' W 123°10'0 0.0
2017-May-04 22:57N 49°17' W 123°10'0 0.0
2017-May-04 19:49N 49°17' W 123°10'0 0.0
2017-May-04 19:29N 49°17' W 123°10'0 0.0
2017-May-04 18:35N 49°17' W 123°10'0 0.0
2017-May-04 18:29N 49°17' W 123°10'0 0.0
2017-May-04 17:58N 49°17' W 123°10'0 0.1
2017-May-04 17:29N 49°17' W 123°10'0 0.0
2017-May-04 16:58N 49°17' W 123°10'0 0.1
2017-May-04 16:29N 49°17' W 123°10'0 0.1
2017-May-04 15:53N 49°17' W 123°10'0 0.0
2017-May-04 15:22N 49°17' W 123°10'0 0.0
2017-May-04 14:59N 49°17' W 123°10'0 0.0
2017-May-04 14:28N 49°17' W 123°10'0 0.0
2017-May-04 13:28N 49°17' W 123°10'0 0.0
2017-May-04 12:49N 49°17' W 123°10'0 0.0
2017-May-04 12:16N 49°17' W 123°10'0 0.0
2017-May-04 11:52N 49°17' W 123°10'0 0.0
2017-May-04 11:28N 49°17' W 123°10'0 0.0
2017-May-04 10:58N 49°17' W 123°10'0 0.0
2017-May-04 10:25N 49°17' W 123°10'0 0.0
2017-May-04 09:58N 49°17' W 123°10'0 0.0
2017-May-04 09:22N 49°17' W 123°10'0 0.0
2017-May-04 08:58N 49°17' W 123°10'0 0.0
2017-May-04 08:28N 49°17' W 123°10'0 0.0
2017-May-04 07:58N 49°17' W 123°10'0 0.0
2017-May-04 07:28N 49°17' W 123°10'0 0.0
2017-May-04 06:58N 49°17' W 123°10'0 0.0
2017-May-04 06:28N 49°17' W 123°10'0 0.0
2017-May-04 05:58N 49°17' W 123°10'0 0.1
2017-May-04 05:25N 49°17' W 123°10'0 0.0
2017-May-04 04:52N 49°17' W 123°10'0 0.0
2017-May-04 04:28N 49°17' W 123°10'0 0.0
2017-May-04 03:49N 49°17' W 123°10'0 0.0
2017-May-04 03:28N 49°17' W 123°10'0 0.1
2017-May-04 02:58N 49°17' W 123°10'0 0.0
2017-May-04 02:28N 49°17' W 123°10'0 0.1
2017-May-04 01:55N 49°17' W 123°10'0 0.0
2017-May-04 01:28N 49°17' W 123°10'0 0.0
2017-May-04 00:58N 49°17' W 123°10'0 0.1
2017-May-04 00:19N 49°17' W 123°10'0 0.1
2017-May-03 23:55N 49°17' W 123°10'0 0.0
2017-May-03 23:25N 49°17' W 123°10'0 0.0
2017-May-03 22:55N 49°17' W 123°10'0 0.1
2017-May-03 22:28N 49°17' W 123°10'0 0.1
2017-May-03 21:55N 49°17' W 123°10'0 0.0
2017-May-03 21:25N 49°17' W 123°10'0 0.0
2017-May-03 20:52N 49°17' W 123°10'0 0.0
2017-May-03 20:30N 49°17' W 123°10'0 0.1
2017-May-03 20:00N 49°17' W 123°10'0 0.0
2017-May-03 19:30N 49°17' W 123°10'0 0.0
2017-May-03 19:00N 49°17' W 123°10'0 0.0
2017-May-03 18:30N 49°17' W 123°10'0 0.0
2017-May-03 18:00N 49°17' W 123°10'0 0.0
2017-May-03 17:29N 49°17' W 123°10'0 0.0
2017-May-03 17:00N 49°17' W 123°10'0 0.1
2017-May-03 16:30N 49°17' W 123°10'0 0.1
2017-May-03 16:00N 49°17' W 123°10'0 0.0
2017-May-03 15:30N 49°17' W 123°10'0 0.0
2017-May-03 15:00N 49°17' W 123°10'0 0.0
2017-May-03 13:59N 49°17' W 123°10'0 0.0
2017-May-03 13:30N 49°17' W 123°10'0 0.0
2017-May-03 13:00N 49°17' W 123°10'0 0.0
2017-May-03 12:30N 49°17' W 123°10'0 0.0
2017-May-03 12:00N 49°17' W 123°10'0 0.0
2017-May-03 11:30N 49°17' W 123°10'0 0.0
2017-May-03 11:00N 49°17' W 123°10'0 0.0
2017-May-03 10:30N 49°17' W 123°10'0 0.0
2017-May-03 10:00N 49°17' W 123°10'0 0.0
2017-May-03 09:30N 49°17' W 123°10'0 0.0
2017-May-03 09:00N 49°17' W 123°10'0 0.0
2017-May-03 08:30N 49°17' W 123°10'0 0.0
2017-May-03 08:00N 49°17' W 123°10'0 0.0
2017-May-03 07:30N 49°17' W 123°10'0 0.0
2017-May-03 07:00N 49°17' W 123°10'0 0.0
2017-May-03 06:30N 49°17' W 123°10'0 0.0
2017-May-03 06:00N 49°17' W 123°10'0 0.0
2017-May-03 05:30N 49°17' W 123°10'0 0.0
2017-May-03 05:00N 49°17' W 123°10'0 0.1
2017-May-03 04:30N 49°17' W 123°10'0 0.1
2017-May-03 04:00N 49°17' W 123°10'0 0.0
2017-May-03 03:30N 49°17' W 123°10'0 0.0
2017-May-03 03:00N 49°17' W 123°10'0 0.1
2017-May-03 02:30N 49°17' W 123°10'0 0.2
2017-May-03 02:00N 49°17' W 123°10'1 2.8
2017-May-03 01:30N 49°17' W 123°12'4 8.5
2017-May-03 01:00N 49°15' W 123°18'611.6
2017-May-03 00:30N 49°09' W 123°20'611.5
2017-May-03 00:00N 49°04' W 123°19'611.5
2017-May-02 23:30N 48°58' W 123°17'611.5
2017-May-02 23:00N 48°52' W 123°18'3 6.5
2017-May-02 22:30N 48°50' W 123°21'510.7
2017-May-02 22:00N 48°45' W 123°18'510.6
2017-May-02 21:30N 48°40' W 123°15'5 9.4
2017-May-02 21:00N 48°35' W 123°13'5 9.2
2017-May-02 20:30N 48°31' W 123°11'5 9.7
2017-May-02 20:00N 48°26' W 123°11'4 8.5
2017-May-02 19:30N 48°23' W 123°15'5 9.3
2017-May-02 19:00N 48°22' W 123°22'3 6.0
2017-May-02 18:30N 48°19' W 123°24'4 8.4
2017-May-02 17:59N 48°15' W 123°27'3 6.7
2017-May-02 17:30N 48°13' W 123°31'4 7.5
2017-May-02 17:00N 48°13' W 123°36'4 8.2
2017-May-02 16:30N 48°13' W 123°42'4 8.0
2017-May-02 16:00N 48°13' W 123°48'4 9.0
2017-May-02 15:30N 48°13' W 123°55'5 9.9
2017-May-02 14:58N 48°16' W 124°02'4 9.6
2017-May-02 14:30N 48°18' W 124°08'9 9.2
2017-May-02 13:30N 48°21' W 124°21'4 8.9
2017-May-02 13:00N 48°23' W 124°27'5 9.2
2017-May-02 12:30N 48°25' W 124°33'4 8.8
2017-May-02 12:00N 48°27' W 124°39'4 7.7
2017-May-02 11:30N 48°28' W 124°45'4 8.6
2017-May-02 11:00N 48°29' W 124°51'4 8.8
2017-May-02 10:30N 48°29' W 124°58'4 7.8
2017-May-02 09:59N 48°26' W 125°03'5 9.2
2017-May-02 09:30N 48°22' W 125°06'5 9.4
2017-May-02 08:58N 48°17' W 125°08'8510.1
2017-May-02 00:36N 46°53' W 125°13'212.0
2017-May-02 00:28N 46°51' W 125°13'711.9
2017-May-01 23:51N 46°44' W 125°12'412.1
2017-May-01 23:30N 46°39' W 125°12'612.1
2017-May-01 23:00N 46°33' W 125°11'612.2
2017-May-01 22:30N 46°27' W 125°11'612.4
2017-May-01 22:01N 46°21' W 125°09'612.5
2017-May-01 21:30N 46°15' W 125°08'612.2
2017-May-01 21:01N 46°09' W 125°07'612.1
2017-May-01 20:30N 46°03' W 125°08'612.1
2017-May-01 20:00N 45°57' W 125°08'611.8
2017-May-01 19:31N 45°51' W 125°07'611.7
2017-May-01 19:01N 45°45' W 125°06'611.7
2017-May-01 18:30N 45°39' W 125°05'511.3
2017-May-01 18:01N 45°34' W 125°04'711.3
2017-May-01 17:25N 45°27' W 125°03'511.3
2017-May-01 17:00N 45°23' W 125°02'711.1
2017-May-01 16:25N 45°16' W 125°02'1911.2
2017-May-01 14:44N 44°57' W 125°01'311.4
2017-May-01 14:31N 44°55' W 125°01'1111.4
2017-May-01 13:30N 44°43' W 125°01'611.6
2017-May-01 12:59N 44°37' W 125°01'611.4
2017-May-01 12:26N 44°31' W 125°00'611.2
2017-May-01 11:55N 44°25' W 125°01'1911.0
2017-May-01 10:10N 44°06' W 125°01'  
Track history (hours):
 
Tides and Currents Weather Stations Pressure Air Temp Water Temp Dewpoint Dewpoint Depression Visibility Wind Speed Wind Dir Waves Ship Positions

ARC Gloria (Colombia)

Three-masted barque. Training ship of the Colombian National Armada.

Ship's website: http://www.armada.mil.co/

Last reported at 2017-May-10 14:16 UTC. Time now 2017-May-28 08:29 UTC.
Position N 46°50' W 126°06'.
Warning: this ship's position is 17 days out of date.

Length 76 m; draft 4.6 m.

Type: Sailing vessel. MMSI: 730010001.

Date/timePositionNaut miles runAvg speedWind from/ knotsBaromVisibWave heightAir tempDewpointWater temp
2017-May-10 14:16N 46°50' W 126°06'2910.5
2017-May-10 11:31N 47°17' W 125°53'0 9.6
2017-May-10 11:31N 47°17' W 125°53'8210.3
2017-May-10 03:28N 48°31' W 124°58'510.9
2017-May-10 03:00N 48°31' W 124°50'510.6
2017-May-10 02:31N 48°30' W 124°42'510.9
2017-May-10 02:00N 48°28' W 124°34'610.8
2017-May-10 01:30N 48°26' W 124°27'510.4
2017-May-10 01:01N 48°24' W 124°20'5 9.6
2017-May-10 00:31N 48°22' W 124°13'5 9.2
2017-May-10 00:00N 48°20' W 124°07'4 9.0
2017-May-09 23:31N 48°19' W 124°00'6 9.1
2017-May-09 22:52N 48°17' W 123°52'3 9.4
2017-May-09 22:30N 48°17' W 123°47'5 9.3
2017-May-09 21:59N 48°16' W 123°40'5 9.7
2017-May-09 21:31N 48°15' W 123°33'4 7.7
2017-May-09 21:01N 48°18' W 123°28'5 9.4
2017-May-09 20:29N 48°22' W 123°25'3 7.0
2017-May-09 20:01N 48°23' W 123°20'4 7.7
2017-May-09 19:31N 48°24' W 123°14'5 9.4
2017-May-09 19:01N 48°29' W 123°13'612.0
2017-May-09 18:31N 48°35' W 123°14'612.1
2017-May-09 18:00N 48°41' W 123°16'510.2
2017-May-09 17:30N 48°45' W 123°19'611.7
2017-May-09 16:58N 48°52' W 123°21'4 6.9
2017-May-09 16:20N 48°56' W 123°19'410.7
2017-May-09 15:59N 48°59' W 123°21'611.9
2017-May-09 15:30N 49°05' W 123°23'611.5
2017-May-09 14:59N 49°11' W 123°22'9 9.3
2017-May-09 14:00N 49°17' W 123°13'2 3.3
2017-May-09 13:30N 49°17' W 123°11'0 0.0
2017-May-09 12:57N 49°17' W 123°11'0 0.0
2017-May-09 12:30N 49°17' W 123°11'0 0.0
2017-May-09 11:57N 49°17' W 123°11'0 0.0
2017-May-09 11:18N 49°17' W 123°11'0 0.0
2017-May-09 10:51N 49°17' W 123°11'0 0.0
2017-May-09 10:30N 49°17' W 123°11'0 0.0
2017-May-09 10:00N 49°17' W 123°11'0 0.0
2017-May-09 09:30N 49°17' W 123°11'0 0.0
2017-May-09 08:54N 49°17' W 123°11'0 0.1
2017-May-09 08:27N 49°17' W 123°11'0 0.0
2017-May-09 08:00N 49°17' W 123°11'0 0.0
2017-May-09 07:30N 49°17' W 123°11'0 0.1
2017-May-09 06:54N 49°17' W 123°11'0 0.1
2017-May-09 06:24N 49°17' W 123°11'0 0.0
2017-May-09 05:54N 49°17' W 123°11'0 0.1
2017-May-09 05:30N 49°17' W 123°11'0 0.0
2017-May-09 04:57N 49°17' W 123°11'0 0.0
2017-May-09 03:43N 49°17' W 123°11'0 0.1
2017-May-09 03:25N 49°17' W 123°11'0 0.0
2017-May-09 02:55N 49°17' W 123°11'0 0.5
2017-May-09 02:28N 49°17' W 123°11'1 2.8
2017-May-09 02:01N 49°19' W 123°10'3 5.3
2017-May-09 01:30N 49°18' W 123°06'1 1.1
2017-May-09 00:51N 49°18' W 123°05'  
2017-May-05 01:25N 49°18' W 123°05'0 1.2
2017-May-05 01:00N 49°18' W 123°05'3 5.3
2017-May-05 00:30N 49°19' W 123°09'2 3.6
2017-May-05 00:00N 49°17' W 123°10'0 0.9
2017-May-04 23:29N 49°17' W 123°10'0 0.0
2017-May-04 22:57N 49°17' W 123°10'0 0.0
2017-May-04 19:49N 49°17' W 123°10'0 0.0
2017-May-04 19:29N 49°17' W 123°10'0 0.0
2017-May-04 18:35N 49°17' W 123°10'0 0.0
2017-May-04 18:29N 49°17' W 123°10'0 0.0
2017-May-04 17:58N 49°17' W 123°10'0 0.1
2017-May-04 17:29N 49°17' W 123°10'0 0.0
2017-May-04 16:58N 49°17' W 123°10'0 0.1
2017-May-04 16:29N 49°17' W 123°10'0 0.1
2017-May-04 15:53N 49°17' W 123°10'0 0.0
2017-May-04 15:22N 49°17' W 123°10'0 0.0
2017-May-04 14:59N 49°17' W 123°10'0 0.0
2017-May-04 14:28N 49°17' W 123°10'0 0.0
2017-May-04 13:28N 49°17' W 123°10'0 0.0
2017-May-04 12:49N 49°17' W 123°10'0 0.0
2017-May-04 12:16N 49°17' W 123°10'0 0.0
2017-May-04 11:52N 49°17' W 123°10'0 0.0
2017-May-04 11:28N 49°17' W 123°10'0 0.0
2017-May-04 10:58N 49°17' W 123°10'0 0.0
2017-May-04 10:25N 49°17' W 123°10'0 0.0
2017-May-04 09:58N 49°17' W 123°10'0 0.0
2017-May-04 09:22N 49°17' W 123°10'0 0.0
2017-May-04 08:58N 49°17' W 123°10'0 0.0
2017-May-04 08:28N 49°17' W 123°10'0 0.0
2017-May-04 07:58N 49°17' W 123°10'0 0.0
2017-May-04 07:28N 49°17' W 123°10'0 0.0
2017-May-04 06:58N 49°17' W 123°10'0 0.0
2017-May-04 06:28N 49°17' W 123°10'0 0.0
2017-May-04 05:58N 49°17' W 123°10'0 0.1
2017-May-04 05:25N 49°17' W 123°10'0 0.0
2017-May-04 04:52N 49°17' W 123°10'0 0.0
2017-May-04 04:28N 49°17' W 123°10'0 0.0
2017-May-04 03:49N 49°17' W 123°10'0 0.0
2017-May-04 03:28N 49°17' W 123°10'0 0.1
2017-May-04 02:58N 49°17' W 123°10'0 0.0
2017-May-04 02:28N 49°17' W 123°10'0 0.1
2017-May-04 01:55N 49°17' W 123°10'0 0.0
2017-May-04 01:28N 49°17' W 123°10'0 0.0
2017-May-04 00:58N 49°17' W 123°10'0 0.1
2017-May-04 00:19N 49°17' W 123°10'0 0.1
2017-May-03 23:55N 49°17' W 123°10'0 0.0
2017-May-03 23:25N 49°17' W 123°10'0 0.0
2017-May-03 22:55N 49°17' W 123°10'0 0.1
2017-May-03 22:28N 49°17' W 123°10'0 0.1
2017-May-03 21:55N 49°17' W 123°10'0 0.0
2017-May-03 21:25N 49°17' W 123°10'0 0.0
2017-May-03 20:52N 49°17' W 123°10'0 0.0
2017-May-03 20:30N 49°17' W 123°10'0 0.1
2017-May-03 20:00N 49°17' W 123°10'0 0.0
2017-May-03 19:30N 49°17' W 123°10'0 0.0
2017-May-03 19:00N 49°17' W 123°10'0 0.0
2017-May-03 18:30N 49°17' W 123°10'0 0.0
2017-May-03 18:00N 49°17' W 123°10'0 0.0
2017-May-03 17:29N 49°17' W 123°10'0 0.0
2017-May-03 17:00N 49°17' W 123°10'0 0.1
2017-May-03 16:30N 49°17' W 123°10'0 0.1
2017-May-03 16:00N 49°17' W 123°10'0 0.0
2017-May-03 15:30N 49°17' W 123°10'0 0.0
2017-May-03 15:00N 49°17' W 123°10'0 0.0
2017-May-03 13:59N 49°17' W 123°10'0 0.0
2017-May-03 13:30N 49°17' W 123°10'0 0.0
2017-May-03 13:00N 49°17' W 123°10'0 0.0
2017-May-03 12:30N 49°17' W 123°10'0 0.0
2017-May-03 12:00N 49°17' W 123°10'0 0.0
2017-May-03 11:30N 49°17' W 123°10'0 0.0
2017-May-03 11:00N 49°17' W 123°10'0 0.0
2017-May-03 10:30N 49°17' W 123°10'0 0.0
2017-May-03 10:00N 49°17' W 123°10'0 0.0
2017-May-03 09:30N 49°17' W 123°10'0 0.0
2017-May-03 09:00N 49°17' W 123°10'0 0.0
2017-May-03 08:30N 49°17' W 123°10'0 0.0
2017-May-03 08:00N 49°17' W 123°10'0 0.0
2017-May-03 07:30N 49°17' W 123°10'0 0.0
2017-May-03 07:00N 49°17' W 123°10'0 0.0
2017-May-03 06:30N 49°17' W 123°10'0 0.0
2017-May-03 06:00N 49°17' W 123°10'0 0.0
2017-May-03 05:30N 49°17' W 123°10'0 0.0
2017-May-03 05:00N 49°17' W 123°10'0 0.1
2017-May-03 04:30N 49°17' W 123°10'0 0.1
2017-May-03 04:00N 49°17' W 123°10'0 0.0
2017-May-03 03:30N 49°17' W 123°10'0 0.0
2017-May-03 03:00N 49°17' W 123°10'0 0.1
2017-May-03 02:30N 49°17' W 123°10'0 0.2
2017-May-03 02:00N 49°17' W 123°10'1 2.8
2017-May-03 01:30N 49°17' W 123°12'4 8.5
2017-May-03 01:00N 49°15' W 123°18'611.6
2017-May-03 00:30N 49°09' W 123°20'611.5
2017-May-03 00:00N 49°04' W 123°19'611.5
2017-May-02 23:30N 48°58' W 123°17'611.5
2017-May-02 23:00N 48°52' W 123°18'3 6.5
2017-May-02 22:30N 48°50' W 123°21'510.7
2017-May-02 22:00N 48°45' W 123°18'510.6
2017-May-02 21:30N 48°40' W 123°15'5 9.4
2017-May-02 21:00N 48°35' W 123°13'5 9.2
2017-May-02 20:30N 48°31' W 123°11'5 9.7
2017-May-02 20:00N 48°26' W 123°11'4 8.5
2017-May-02 19:30N 48°23' W 123°15'5 9.3
2017-May-02 19:00N 48°22' W 123°22'3 6.0
2017-May-02 18:30N 48°19' W 123°24'4 8.4
2017-May-02 17:59N 48°15' W 123°27'3 6.7
2017-May-02 17:30N 48°13' W 123°31'4 7.5
2017-May-02 17:00N 48°13' W 123°36'4 8.2
2017-May-02 16:30N 48°13' W 123°42'4 8.0
2017-May-02 16:00N 48°13' W 123°48'4 9.0
2017-May-02 15:30N 48°13' W 123°55'5 9.9
2017-May-02 14:58N 48°16' W 124°02'4 9.6
2017-May-02 14:30N 48°18' W 124°08'9 9.2
2017-May-02 13:30N 48°21' W 124°21'4 8.9
2017-May-02 13:00N 48°23' W 124°27'5 9.2
2017-May-02 12:30N 48°25' W 124°33'4 8.8
2017-May-02 12:00N 48°27' W 124°39'4 7.7
2017-May-02 11:30N 48°28' W 124°45'4 8.6
2017-May-02 11:00N 48°29' W 124°51'4 8.8
2017-May-02 10:30N 48°29' W 124°58'4 7.8
2017-May-02 09:59N 48°26' W 125°03'5 9.2
2017-May-02 09:30N 48°22' W 125°06'5 9.4
2017-May-02 08:58N 48°17' W 125°08'8510.1
2017-May-02 00:36N 46°53' W 125°13'212.0
2017-May-02 00:28N 46°51' W 125°13'711.9
2017-May-01 23:51N 46°44' W 125°12'412.1
2017-May-01 23:30N 46°39' W 125°12'612.1
2017-May-01 23:00N 46°33' W 125°11'612.2
2017-May-01 22:30N 46°27' W 125°11'612.4
2017-May-01 22:01N 46°21' W 125°09'612.5
2017-May-01 21:30N 46°15' W 125°08'612.2
2017-May-01 21:01N 46°09' W 125°07'612.1
2017-May-01 20:30N 46°03' W 125°08'612.1
2017-May-01 20:00N 45°57' W 125°08'611.8
2017-May-01 19:31N 45°51' W 125°07'611.7
2017-May-01 19:01N 45°45' W 125°06'611.7
2017-May-01 18:30N 45°39' W 125°05'511.3
2017-May-01 18:01N 45°34' W 125°04'711.3
2017-May-01 17:25N 45°27' W 125°03'511.3
2017-May-01 17:00N 45°23' W 125°02'711.1
2017-May-01 16:25N 45°16' W 125°02'1911.2
2017-May-01 14:44N 44°57' W 125°01'311.4
2017-May-01 14:31N 44°55' W 125°01'1111.4
2017-May-01 13:30N 44°43' W 125°01'611.6
2017-May-01 12:59N 44°37' W 125°01'611.4
2017-May-01 12:26N 44°31' W 125°00'611.2
2017-May-01 11:55N 44°25' W 125°01'1911.0
2017-May-01 10:10N 44°06' W 125°01'  

Dump ship's entire track history